createdAt,value
2022-08-17T00:02:31.141Z,18.50
2022-08-17T00:07:21.853Z,18.50
2022-08-17T00:12:40.945Z,18.60
2022-08-17T00:17:10.083Z,18.60
2022-08-17T00:22:33.077Z,18.50
2022-08-17T00:27:03.699Z,18.30
2022-08-17T00:31:47.237Z,18.40
2022-08-17T00:36:31.151Z,18.30
2022-08-17T00:41:16.645Z,18.40
2022-08-17T00:46:03.481Z,18.20
2022-08-17T00:50:55.453Z,18.20
2022-08-17T00:55:39.024Z,18.10
2022-08-17T01:00:26.901Z,18.10
2022-08-17T01:05:18.674Z,18.10
2022-08-17T01:10:05.316Z,18.10
2022-08-17T01:14:48.879Z,18.00
2022-08-17T01:19:35.998Z,17.80
2022-08-17T01:24:21.240Z,17.90
2022-08-17T01:29:06.542Z,18.00
2022-08-17T01:33:50.227Z,18.00
2022-08-17T01:38:33.833Z,18.00
2022-08-17T01:43:23.034Z,17.80
2022-08-17T01:48:07.360Z,17.70
2022-08-17T01:52:54.288Z,17.80
2022-08-17T01:57:38.085Z,17.60
2022-08-17T02:02:30.523Z,17.80
2022-08-17T02:07:15.349Z,17.80
2022-08-17T02:12:37.163Z,17.50
2022-08-17T02:17:07.412Z,17.50
2022-08-17T02:21:54.942Z,17.40
2022-08-17T02:26:38.661Z,17.30
2022-08-17T02:31:22.508Z,17.30
2022-08-17T02:36:09.271Z,17.20
2022-08-17T02:40:54.209Z,17.30
2022-08-17T02:45:41.008Z,17.20
2022-08-17T02:50:25.913Z,17.20
2022-08-17T02:55:12.908Z,17.30
2022-08-17T02:59:58.001Z,17.10
2022-08-17T03:04:41.559Z,16.90
2022-08-17T03:09:25.090Z,16.90
2022-08-17T03:14:08.623Z,16.80
2022-08-17T03:18:54.459Z,16.70
2022-08-17T03:23:41.257Z,16.60
2022-08-17T03:28:26.356Z,16.50
2022-08-17T03:33:11.394Z,16.40
2022-08-17T03:38:00.000Z,16.40
2022-08-17T03:42:45.180Z,16.30
2022-08-17T03:47:46.792Z,16.30
2022-08-17T03:52:48.185Z,16.20
2022-08-17T03:57:37.039Z,16.30
2022-08-17T04:02:23.466Z,16.30
2022-08-17T04:07:07.484Z,16.10
2022-08-17T04:11:51.027Z,16.10
2022-08-17T04:16:37.348Z,16.20
2022-08-17T04:21:21.341Z,16.30
2022-08-17T04:26:05.366Z,16.40
2022-08-17T04:30:49.483Z,16.50
2022-08-17T04:35:37.810Z,16.70
2022-08-17T04:40:40.381Z,16.80
2022-08-17T04:45:23.907Z,17.00
2022-08-17T04:50:08.848Z,17.40
2022-08-17T04:54:53.961Z,17.40
2022-08-17T04:59:37.559Z,17.50
2022-08-17T05:04:33.434Z,17.70
2022-08-17T05:09:19.775Z,18.10
2022-08-17T05:14:05.438Z,18.20
2022-08-17T05:18:49.186Z,18.40
2022-08-17T05:23:41.858Z,18.40
2022-08-17T05:28:28.460Z,18.60
2022-08-17T05:33:16.801Z,18.70
2022-08-17T05:38:01.225Z,19.00
2022-08-17T05:42:44.871Z,19.60
2022-08-17T05:47:29.235Z,19.90
2022-08-17T05:52:34.849Z,20.30
2022-08-17T05:57:34.149Z,20.40
2022-08-17T06:02:26.048Z,20.70
2022-08-17T06:07:16.727Z,21.00
2022-08-17T06:12:14.221Z,20.90
2022-08-17T06:17:03.870Z,20.80
2022-08-17T06:21:51.460Z,20.90
2022-08-17T06:26:42.957Z,20.90
2022-08-17T06:31:30.348Z,20.80
2022-08-17T06:36:25.376Z,20.60
2022-08-17T06:41:19.242Z,20.80
2022-08-17T06:46:08.324Z,21.20
2022-08-17T06:51:00.278Z,21.10
2022-08-17T06:55:48.785Z,21.30
2022-08-17T07:00:37.633Z,21.30
2022-08-17T07:05:23.835Z,21.30
2022-08-17T07:10:11.293Z,21.50
2022-08-17T07:15:01.112Z,22.00
2022-08-17T07:19:47.563Z,22.70
2022-08-17T07:24:37.445Z,23.70
2022-08-17T07:29:22.730Z,23.50
2022-08-17T07:34:14.622Z,23.70
2022-08-17T07:38:59.698Z,23.70
2022-08-17T07:43:50.160Z,23.60
2022-08-17T07:48:39.434Z,24.70
2022-08-17T07:53:25.533Z,24.70
2022-08-17T07:58:09.675Z,24.30
2022-08-17T08:03:15.427Z,24.50
2022-08-17T08:08:03.181Z,24.60
2022-08-17T08:12:53.684Z,25.00
2022-08-17T08:17:49.084Z,26.00
2022-08-17T08:22:42.470Z,26.20
2022-08-17T08:27:39.346Z,25.70
2022-08-17T08:32:35.507Z,25.40
2022-08-17T08:37:35.591Z,26.10
2022-08-17T08:42:28.702Z,27.20
2022-08-17T08:47:20.707Z,27.00
2022-08-17T08:52:06.434Z,26.70
2022-08-17T08:57:22.853Z,26.60
2022-08-17T09:02:07.100Z,26.10
2022-08-17T09:07:02.795Z,25.70
2022-08-17T09:12:01.485Z,25.60
2022-08-17T09:16:58.907Z,25.90
2022-08-17T09:21:48.863Z,27.50
2022-08-17T09:26:46.388Z,28.60
2022-08-17T09:31:47.044Z,27.90
2022-08-17T09:36:37.837Z,29.40
2022-08-17T09:41:26.483Z,30.60
2022-08-17T09:46:17.355Z,31.30
2022-08-17T09:51:07.267Z,31.20
2022-08-17T09:56:02.579Z,31.50
2022-08-17T10:00:53.883Z,31.70
2022-08-17T10:05:47.550Z,31.80
2022-08-17T10:10:37.615Z,32.20
2022-08-17T10:15:38.234Z,32.60
2022-08-17T10:20:30.618Z,32.90
2022-08-17T10:25:53.450Z,33.20
2022-08-17T10:30:45.813Z,33.40
2022-08-17T10:35:36.268Z,33.20
2022-08-17T10:40:39.602Z,33.60
2022-08-17T10:45:27.263Z,33.90
2022-08-17T10:51:04.134Z,34.10
2022-08-17T10:56:23.594Z,33.30
2022-08-17T11:01:12.957Z,33.60
2022-08-17T11:06:12.806Z,34.00
2022-08-17T11:11:29.218Z,33.70
2022-08-17T11:16:34.911Z,34.10
2022-08-17T11:21:45.328Z,34.40
2022-08-17T11:26:32.252Z,34.20
2022-08-17T11:31:38.940Z,34.80
2022-08-17T11:36:40.710Z,33.60
2022-08-17T11:41:35.003Z,32.10
2022-08-17T11:46:54.251Z,31.30
2022-08-17T11:52:12.169Z,31.50
2022-08-17T11:56:56.919Z,33.60
2022-08-17T12:02:00.792Z,34.60
2022-08-17T12:06:49.933Z,35.50
2022-08-17T12:11:55.433Z,34.90
2022-08-17T12:16:45.686Z,34.90
2022-08-17T12:21:54.859Z,35.20
2022-08-17T12:26:39.086Z,36.30
2022-08-17T12:31:27.727Z,36.50
2022-08-17T12:36:16.542Z,35.80
2022-08-17T12:41:22.670Z,36.10
2022-08-17T12:46:13.215Z,36.60
2022-08-17T12:51:02.683Z,36.40
2022-08-17T12:55:46.758Z,35.50
2022-08-17T13:00:35.974Z,35.90
2022-08-17T13:05:25.330Z,37.70
2022-08-17T13:10:09.740Z,38.50
2022-08-17T13:14:53.524Z,38.40
2022-08-17T13:19:48.588Z,37.70
2022-08-17T13:24:38.084Z,38.10
2022-08-17T13:29:25.187Z,37.00
2022-08-17T13:34:19.232Z,38.90
2022-08-17T13:39:17.040Z,38.00
2022-08-17T13:44:00.831Z,36.70
2022-08-17T13:48:44.714Z,36.50
2022-08-17T13:53:31.674Z,37.60
2022-08-17T13:58:23.865Z,37.10
2022-08-17T14:03:07.848Z,37.60
2022-08-17T14:07:57.464Z,37.30
2022-08-17T14:12:43.293Z,37.30
2022-08-17T14:17:34.940Z,37.20
2022-08-17T14:22:27.200Z,36.40
2022-08-17T14:27:12.269Z,34.90
2022-08-17T14:31:57.025Z,34.60
2022-08-17T14:36:48.294Z,33.90
2022-08-17T14:41:32.582Z,33.40
2022-08-17T14:46:16.922Z,32.50
2022-08-17T14:51:00.569Z,32.30
2022-08-17T14:55:47.147Z,31.90
2022-08-17T15:00:32.665Z,31.60
2022-08-17T15:05:20.557Z,31.10
2022-08-17T15:10:04.920Z,30.70
2022-08-17T15:14:50.169Z,30.50
2022-08-17T15:19:33.862Z,30.20
2022-08-17T15:24:17.790Z,30.20
2022-08-17T15:29:01.424Z,30.00
2022-08-17T15:33:47.068Z,29.90
2022-08-17T15:38:34.126Z,29.60
2022-08-17T15:43:24.830Z,29.40
2022-08-17T15:48:11.545Z,29.30
2022-08-17T15:53:02.092Z,29.30
2022-08-17T15:57:45.971Z,29.30
2022-08-17T16:03:09.859Z,29.20
2022-08-17T16:07:36.032Z,29.30
2022-08-17T16:12:23.158Z,29.20
2022-08-17T16:17:38.763Z,29.20
2022-08-17T16:22:15.254Z,29.10
2022-08-17T16:26:59.281Z,28.90
2022-08-17T16:31:44.452Z,28.80
2022-08-17T16:36:29.478Z,28.60
2022-08-17T16:41:13.149Z,28.50
2022-08-17T16:45:57.459Z,28.40
2022-08-17T16:50:43.212Z,28.40
2022-08-17T16:55:47.491Z,28.50
2022-08-17T17:00:31.367Z,28.20
2022-08-17T17:05:26.938Z,28.30
2022-08-17T17:10:18.581Z,28.20
2022-08-17T17:15:02.448Z,28.00
2022-08-17T17:19:50.204Z,27.70
2022-08-17T17:24:41.282Z,27.30
2022-08-17T17:29:48.085Z,26.90
2022-08-17T17:34:37.593Z,26.60
2022-08-17T17:39:43.774Z,26.40
2022-08-17T17:44:31.621Z,26.30
2022-08-17T17:49:19.010Z,26.10
2022-08-17T17:54:11.747Z,26.10
2022-08-17T17:59:01.724Z,25.90
2022-08-17T18:04:04.756Z,25.80
2022-08-17T18:09:19.386Z,25.70
2022-08-17T18:14:15.807Z,25.60
2022-08-17T18:19:01.849Z,25.50
2022-08-17T18:23:59.329Z,25.30
2022-08-17T18:28:55.705Z,25.20
2022-08-17T18:34:23.352Z,25.20
2022-08-17T18:39:41.263Z,25.00
2022-08-17T18:44:58.251Z,24.90
2022-08-17T18:49:49.539Z,24.90
2022-08-17T18:55:05.417Z,24.90
2022-08-17T19:00:00.025Z,24.70
2022-08-17T19:05:22.396Z,24.70
2022-08-17T19:10:49.310Z,24.60
2022-08-17T19:22:27.081Z,24.20
2022-08-17T19:27:34.785Z,23.70
2022-08-17T19:32:29.329Z,23.80
2022-08-17T19:37:25.491Z,23.80
2022-08-17T19:42:16.679Z,23.80
2022-08-17T19:47:10.959Z,23.70
2022-08-17T19:52:02.183Z,23.20
2022-08-17T19:56:54.960Z,22.90
2022-08-17T20:01:49.120Z,22.70
2022-08-17T20:06:38.678Z,22.70
2022-08-17T20:11:26.479Z,22.70
2022-08-17T20:16:11.073Z,22.90
2022-08-17T20:21:00.620Z,22.90
2022-08-17T20:25:56.822Z,22.80
2022-08-17T20:30:42.697Z,22.80
2022-08-17T20:35:30.640Z,22.60
2022-08-17T20:40:38.420Z,22.50
2022-08-17T20:45:50.174Z,22.30
2022-08-17T20:50:38.622Z,22.00
2022-08-17T20:55:56.068Z,21.70
2022-08-17T21:00:46.247Z,21.60
2022-08-17T21:05:34.782Z,21.50
2022-08-17T21:10:29.407Z,21.60
2022-08-17T21:15:31.294Z,21.50
2022-08-17T21:20:36.240Z,21.60
2022-08-17T21:25:49.926Z,21.60
2022-08-17T21:30:52.097Z,21.70
2022-08-17T21:35:51.900Z,21.80
2022-08-17T21:40:37.557Z,22.20
2022-08-17T21:45:26.021Z,22.20
2022-08-17T21:50:18.955Z,22.00
2022-08-17T21:55:04.599Z,21.80
2022-08-17T21:59:54.904Z,21.50
2022-08-17T22:04:42.252Z,21.00
2022-08-17T22:09:28.859Z,20.70
2022-08-17T22:14:21.798Z,20.40
2022-08-17T22:19:07.057Z,20.10
2022-08-17T22:24:05.953Z,19.90
2022-08-17T22:28:56.828Z,20.00
2022-08-17T22:33:46.097Z,19.90
2022-08-17T22:38:33.069Z,19.90
2022-08-17T22:43:17.456Z,19.90
2022-08-17T22:48:03.624Z,19.80
2022-08-17T22:53:16.904Z,19.70
2022-08-17T22:58:18.901Z,20.00
2022-08-17T23:03:13.763Z,19.90
2022-08-17T23:07:59.310Z,19.90
2022-08-17T23:12:43.383Z,19.90
2022-08-17T23:17:27.886Z,19.90
2022-08-17T23:22:12.306Z,19.90
2022-08-17T23:26:59.513Z,19.80
2022-08-17T23:31:43.828Z,19.80
2022-08-17T23:36:28.577Z,19.70
2022-08-17T23:41:15.207Z,19.60
2022-08-17T23:46:04.015Z,19.50
2022-08-17T23:50:47.751Z,19.30
2022-08-17T23:55:34.805Z,19.20
